createdAt,value
2019-05-30T00:02:06.472Z,2.83
2019-05-30T00:04:32.760Z,2.40
2019-05-30T00:07:00.435Z,2.60
2019-05-30T00:09:26.931Z,2.40
2019-05-30T00:11:54.565Z,2.67
2019-05-30T00:14:20.814Z,2.50
2019-05-30T00:16:46.914Z,2.13
2019-05-30T00:19:13.325Z,2.33
2019-05-30T00:21:39.418Z,2.40
2019-05-30T00:24:06.178Z,2.40
2019-05-30T00:26:32.531Z,2.30
2019-05-30T00:28:58.663Z,2.50
2019-05-30T00:31:24.868Z,2.37
2019-05-30T00:33:51.075Z,2.40
2019-05-30T00:36:17.259Z,2.33
2019-05-30T00:38:43.485Z,2.43
2019-05-30T00:41:09.956Z,2.23
2019-05-30T00:43:36.240Z,2.60
2019-05-30T00:46:02.536Z,2.27
2019-05-30T00:48:28.611Z,2.20
2019-05-30T00:50:54.726Z,2.50
2019-05-30T00:53:20.794Z,2.20
2019-05-30T00:55:46.914Z,2.37
2019-05-30T00:58:14.137Z,2.30
2019-05-30T01:00:43.943Z,2.40
2019-05-30T01:03:09.075Z,2.40
2019-05-30T01:05:35.489Z,2.40
2019-05-30T01:08:03.249Z,2.53
2019-05-30T01:10:29.665Z,2.40
2019-05-30T01:12:56.845Z,2.17
2019-05-30T01:15:23.091Z,2.20
2019-05-30T01:17:49.184Z,2.30
2019-05-30T01:20:17.162Z,2.63
2019-05-30T01:22:43.241Z,2.60
2019-05-30T01:25:09.639Z,2.67
2019-05-30T01:27:36.041Z,2.30
2019-05-30T01:30:07.953Z,2.40
2019-05-30T01:32:35.546Z,2.40
2019-05-30T01:35:02.169Z,2.50
2019-05-30T01:37:28.353Z,2.60
2019-05-30T01:39:55.233Z,2.70
2019-05-30T01:42:21.650Z,2.57
2019-05-30T01:44:47.829Z,2.77
2019-05-30T01:47:14.007Z,2.60
2019-05-30T01:49:40.203Z,2.60
2019-05-30T01:52:08.646Z,2.70
2019-05-30T01:54:34.986Z,2.90
2019-05-30T01:57:01.206Z,2.37
2019-05-30T01:59:27.313Z,2.70
2019-05-30T02:01:53.403Z,2.93
2019-05-30T02:04:19.484Z,3.03
2019-05-30T02:06:45.578Z,2.77
2019-05-30T02:09:11.869Z,2.67
2019-05-30T02:11:38.050Z,2.80
2019-05-30T02:14:05.619Z,2.70
2019-05-30T02:16:31.947Z,2.50
2019-05-30T02:18:58.039Z,2.80
2019-05-30T02:21:24.120Z,2.90
2019-05-30T02:23:50.209Z,2.77
2019-05-30T02:26:16.420Z,2.97
2019-05-30T02:28:42.629Z,2.83
2019-05-30T02:31:09.671Z,2.70
2019-05-30T02:33:36.755Z,3.07
2019-05-30T02:36:04.074Z,2.83
2019-05-30T02:38:31.118Z,2.90
2019-05-30T02:40:57.313Z,2.97
2019-05-30T02:43:23.423Z,2.90
2019-05-30T02:45:49.558Z,2.70
2019-05-30T02:48:15.751Z,3.13
2019-05-30T02:50:41.835Z,3.00
2019-05-30T02:53:08.756Z,3.10
2019-05-30T02:55:35.906Z,3.30
2019-05-30T02:58:03.710Z,3.30
2019-05-30T03:00:33.327Z,3.13
2019-05-30T03:02:59.495Z,3.30
2019-05-30T03:05:25.601Z,3.53
2019-05-30T03:07:51.879Z,3.67
2019-05-30T03:10:18.164Z,3.80
2019-05-30T03:12:44.515Z,3.50
2019-05-30T03:15:12.994Z,3.67
2019-05-30T03:17:39.364Z,3.50
2019-05-30T03:20:14.964Z,3.63
2019-05-30T03:22:34.380Z,3.83
2019-05-30T03:25:02.787Z,3.63
2019-05-30T03:27:28.708Z,3.60
2019-05-30T03:29:54.998Z,4.00
2019-05-30T03:34:49.426Z,4.20
2019-05-30T03:37:26.726Z,4.00
2019-05-30T03:39:43.764Z,4.37
2019-05-30T03:42:11.757Z,4.30
2019-05-30T03:44:38.655Z,3.97
2019-05-30T03:47:08.359Z,4.27
2019-05-30T03:49:38.404Z,4.20
2019-05-30T03:52:08.048Z,4.10
2019-05-30T03:54:36.519Z,4.10
2019-05-30T03:57:07.051Z,4.37
2019-05-30T03:59:59.074Z,4.10
2019-05-30T04:02:31.898Z,3.90
2019-05-30T04:05:09.074Z,4.33
2019-05-30T04:07:39.276Z,4.40
2019-05-30T04:10:09.054Z,4.30
2019-05-30T04:12:39.120Z,4.40
2019-05-30T04:15:31.874Z,4.60
2019-05-30T04:17:58.062Z,3.83
2019-05-30T04:20:24.270Z,4.50
2019-05-30T04:22:50.349Z,4.00
2019-05-30T04:25:16.755Z,4.07
2019-05-30T04:27:42.933Z,4.20
2019-05-30T04:30:09.993Z,4.13
2019-05-30T04:32:36.199Z,4.10
2019-05-30T04:35:03.898Z,4.40
2019-05-30T04:37:29.975Z,4.40
2019-05-30T04:39:56.102Z,4.30
2019-05-30T04:42:22.278Z,4.27
2019-05-30T04:44:48.365Z,4.30
2019-05-30T04:47:15.996Z,4.47
2019-05-30T04:49:42.187Z,3.93
2019-05-30T04:52:12.035Z,3.93
2019-05-30T04:54:36.288Z,4.17
2019-05-30T04:57:02.582Z,4.07
2019-05-30T04:59:28.655Z,4.13
2019-05-30T05:01:54.749Z,4.10
2019-05-30T05:04:21.671Z,4.20
2019-05-30T05:06:48.021Z,4.00
2019-05-30T05:09:14.129Z,3.90
2019-05-30T05:11:40.202Z,4.07
2019-05-30T05:14:06.289Z,3.90
2019-05-30T05:16:36.110Z,3.80
2019-05-30T05:19:00.394Z,3.77
2019-05-30T05:21:26.495Z,3.90
2019-05-30T05:23:52.589Z,3.63
2019-05-30T05:26:19.528Z,4.10
2019-05-30T05:28:45.778Z,3.80
2019-05-30T05:31:11.939Z,4.27
2019-05-30T05:33:38.211Z,4.20
2019-05-30T05:36:04.451Z,3.93
2019-05-30T05:38:30.728Z,3.93
2019-05-30T05:40:56.888Z,3.97
2019-05-30T05:43:22.961Z,3.80
2019-05-30T05:45:49.170Z,3.70
2019-05-30T05:48:16.492Z,3.67
2019-05-30T05:50:42.855Z,3.60
2019-05-30T05:53:08.967Z,3.97
2019-05-30T05:55:35.070Z,3.70
2019-05-30T05:58:04.177Z,3.80
2019-05-30T06:00:29.643Z,4.00
2019-05-30T06:02:55.807Z,3.80
2019-05-30T06:05:22.295Z,3.63
2019-05-30T06:07:48.561Z,3.90
2019-05-30T06:10:14.841Z,3.63
2019-05-30T06:12:41.058Z,3.43
2019-05-30T06:15:07.331Z,3.80
2019-05-30T06:17:33.449Z,3.30
2019-05-30T06:19:59.523Z,3.50
2019-05-30T06:22:25.718Z,3.27
2019-05-30T06:24:51.795Z,3.37
2019-05-30T06:27:18.002Z,3.63
2019-05-30T06:29:44.176Z,3.67
2019-05-30T06:32:10.894Z,3.60
2019-05-30T06:34:39.505Z,3.70
2019-05-30T06:37:05.097Z,3.77
2019-05-30T06:39:31.479Z,3.80
2019-05-30T06:41:57.562Z,3.70
2019-05-30T06:44:24.023Z,3.83
2019-05-30T06:46:50.266Z,3.67
2019-05-30T06:49:16.393Z,3.60
2019-05-30T06:51:42.699Z,3.80
2019-05-30T06:54:08.869Z,3.70
2019-05-30T06:56:34.976Z,4.17
2019-05-30T06:59:01.474Z,4.03
2019-05-30T07:01:27.964Z,3.83
2019-05-30T07:03:54.405Z,3.90
2019-05-30T07:06:21.185Z,3.80
2019-05-30T07:08:48.798Z,4.10
2019-05-30T07:11:15.031Z,4.07
2019-05-30T07:13:41.117Z,3.67
2019-05-30T07:16:07.407Z,4.03
2019-05-30T07:18:36.305Z,4.10
2019-05-30T07:21:01.580Z,4.40
2019-05-30T07:23:27.934Z,3.80
2019-05-30T07:25:54.067Z,4.07
2019-05-30T07:28:20.269Z,4.33
2019-05-30T07:30:46.348Z,4.40
2019-05-30T07:33:12.452Z,4.23
2019-05-30T07:35:38.568Z,4.33
2019-05-30T07:38:05.883Z,4.20
2019-05-30T07:40:32.805Z,3.80
2019-05-30T07:42:59.108Z,3.57
2019-05-30T07:45:26.752Z,3.63
2019-05-30T07:47:53.236Z,4.00
2019-05-30T07:50:19.620Z,3.93
2019-05-30T07:52:45.705Z,3.83
2019-05-30T07:55:11.976Z,4.10
2019-05-30T07:57:41.015Z,3.97
2019-05-30T08:00:08.586Z,3.67
2019-05-30T08:02:35.795Z,3.73
2019-05-30T08:05:05.212Z,3.60
2019-05-30T08:07:32.673Z,3.70
2019-05-30T08:09:58.862Z,3.90
2019-05-30T08:12:24.982Z,3.77
2019-05-30T08:14:51.254Z,3.70
2019-05-30T08:17:17.482Z,4.33
2019-05-30T08:19:44.017Z,4.13
2019-05-30T08:22:10.182Z,4.20
2019-05-30T08:24:36.518Z,4.00
2019-05-30T08:27:02.787Z,4.40
2019-05-30T08:29:29.846Z,4.17
2019-05-30T08:31:56.267Z,3.97
2019-05-30T08:34:22.490Z,3.97
2019-05-30T08:36:48.832Z,3.60
2019-05-30T08:39:15.149Z,3.60
2019-05-30T08:41:41.237Z,3.40
2019-05-30T08:44:07.384Z,3.47
2019-05-30T08:46:35.752Z,3.27
2019-05-30T08:49:02.197Z,3.10
2019-05-30T08:51:28.623Z,3.00
2019-05-30T08:53:54.765Z,3.00
2019-05-30T08:56:20.977Z,3.33
2019-05-30T08:58:47.077Z,2.90
2019-05-30T09:01:13.270Z,2.57
2019-05-30T09:03:40.161Z,3.07
2019-05-30T09:06:06.688Z,2.70
2019-05-30T09:08:32.859Z,2.80
2019-05-30T09:10:58.976Z,2.60
2019-05-30T09:13:25.122Z,2.87
2019-05-30T09:15:51.404Z,2.70
2019-05-30T09:18:17.636Z,2.80
2019-05-30T09:20:45.197Z,2.57
2019-05-30T09:23:11.688Z,2.77
2019-05-30T09:25:38.905Z,2.77
2019-05-30T09:28:06.325Z,3.10
2019-05-30T09:30:32.629Z,3.00
2019-05-30T09:32:58.740Z,2.90
2019-05-30T09:35:25.085Z,2.80
2019-05-30T09:37:51.372Z,2.70
2019-05-30T09:40:19.274Z,2.47
2019-05-30T09:42:46.967Z,3.10
2019-05-30T09:45:14.795Z,2.90
2019-05-30T09:47:41.955Z,2.53
2019-05-30T09:50:09.567Z,2.40
2019-05-30T09:52:35.797Z,2.70
2019-05-30T09:55:04.290Z,2.77
2019-05-30T09:57:30.605Z,2.77
2019-05-30T09:59:56.798Z,2.77
2019-05-30T10:02:22.923Z,2.97
2019-05-30T10:04:50.357Z,2.83
2019-05-30T10:07:16.725Z,2.80
2019-05-30T10:09:44.225Z,2.77
2019-05-30T10:12:10.979Z,3.20
2019-05-30T10:14:37.192Z,2.83
2019-05-30T10:17:03.506Z,2.83
2019-05-30T10:19:29.598Z,2.70
2019-05-30T10:21:57.142Z,2.80
2019-05-30T10:24:23.492Z,2.80
2019-05-30T10:26:49.681Z,3.10
2019-05-30T10:29:15.921Z,2.80
2019-05-30T10:31:42.131Z,3.00
2019-05-30T10:34:08.466Z,3.00
2019-05-30T10:36:43.821Z,3.27
2019-05-30T10:39:05.456Z,3.00
2019-05-30T10:41:31.586Z,2.93
2019-05-30T10:43:57.700Z,3.27
2019-05-30T10:46:23.851Z,3.40
2019-05-30T10:48:50.906Z,3.10
2019-05-30T10:51:17.429Z,3.67
2019-05-30T10:53:43.568Z,3.33
2019-05-30T10:56:09.796Z,3.90
2019-05-30T10:58:36.129Z,3.37
2019-05-30T11:01:03.038Z,4.10
2019-05-30T11:03:29.318Z,3.90
2019-05-30T11:06:04.911Z,4.17
2019-05-30T11:08:33.280Z,3.80
2019-05-30T11:10:59.463Z,3.80
2019-05-30T11:13:25.800Z,3.50
2019-05-30T11:15:53.427Z,3.73
2019-05-30T11:18:19.802Z,3.80
2019-05-30T11:20:46.050Z,3.60
2019-05-30T11:23:12.354Z,4.23
2019-05-30T11:25:38.652Z,3.80
2019-05-30T11:28:05.678Z,3.87
2019-05-30T11:30:31.974Z,3.93
2019-05-30T11:32:59.486Z,3.47
2019-05-30T11:35:25.935Z,3.77
2019-05-30T11:37:53.062Z,3.77
2019-05-30T11:40:19.327Z,3.57
2019-05-30T11:42:45.646Z,3.90
2019-05-30T11:45:12.441Z,3.77
2019-05-30T11:47:39.643Z,3.90
2019-05-30T11:50:06.171Z,4.30
2019-05-30T11:52:32.488Z,4.10
2019-05-30T11:54:59.961Z,4.00
2019-05-30T11:57:26.558Z,3.70
2019-05-30T11:59:52.706Z,3.63
2019-05-30T12:02:19.046Z,4.30
2019-05-30T12:04:45.205Z,4.80
2019-05-30T12:07:11.431Z,4.30
2019-05-30T12:09:37.522Z,4.33
2019-05-30T12:12:03.843Z,4.27
2019-05-30T12:14:30.149Z,4.40
2019-05-30T12:16:57.328Z,3.93
2019-05-30T12:19:23.686Z,4.47
2019-05-30T12:21:49.900Z,4.50
2019-05-30T12:24:15.983Z,4.40
2019-05-30T12:26:42.086Z,4.97
2019-05-30T12:29:08.279Z,4.67
2019-05-30T12:31:34.518Z,4.43
2019-05-30T12:34:00.790Z,4.43
2019-05-30T12:36:26.975Z,4.90
2019-05-30T12:38:54.408Z,5.27
2019-05-30T12:41:20.644Z,5.40
2019-05-30T12:43:46.828Z,5.00
2019-05-30T12:46:13.028Z,5.30
2019-05-30T12:48:39.225Z,5.60
2019-05-30T12:51:05.637Z,5.53
2019-05-30T12:53:31.754Z,5.30
2019-05-30T12:55:58.481Z,5.67
2019-05-30T12:58:24.709Z,5.60
2019-05-30T13:00:50.805Z,5.57
2019-05-30T13:03:17.015Z,5.50
2019-05-30T13:05:43.240Z,4.93
2019-05-30T13:08:20.734Z,5.53
2019-05-30T13:10:37.980Z,5.77
2019-05-30T13:13:04.286Z,5.33
2019-05-30T13:15:30.514Z,5.17
2019-05-30T13:17:57.285Z,5.13
2019-05-30T13:20:24.942Z,5.17
2019-05-30T13:22:51.364Z,5.43
2019-05-30T13:25:21.818Z,5.53
2019-05-30T13:27:47.939Z,5.65
2019-05-30T13:30:14.713Z,6.00
2019-05-30T13:32:40.826Z,5.78
2019-05-30T13:35:07.785Z,6.17
2019-05-30T13:37:33.987Z,6.20
2019-05-30T13:40:01.195Z,6.40
2019-05-30T13:42:27.782Z,6.63
2019-05-30T13:44:54.036Z,7.03
2019-05-30T13:47:20.169Z,6.97
2019-05-30T13:49:46.391Z,7.08
2019-05-30T13:52:12.720Z,7.20
2019-05-30T13:54:38.859Z,7.00
2019-05-30T13:57:05.796Z,7.40
2019-05-30T13:59:32.489Z,7.00
2019-05-30T14:01:59.957Z,7.62
2019-05-30T14:04:26.103Z,8.10
2019-05-30T14:06:52.341Z,7.77
2019-05-30T14:09:18.602Z,7.67
2019-05-30T14:11:44.982Z,7.77
2019-05-30T14:14:11.278Z,8.17
2019-05-30T14:16:37.391Z,8.43
2019-05-30T14:19:05.241Z,7.35
2019-05-30T14:21:31.720Z,7.87
2019-05-30T14:23:57.817Z,8.00
2019-05-30T14:26:24.138Z,7.43
2019-05-30T14:28:50.369Z,8.50
2019-05-30T14:31:16.553Z,8.40
2019-05-30T14:33:42.694Z,8.00
2019-05-30T14:36:11.363Z,7.90
2019-05-30T14:38:37.099Z,7.40
2019-05-30T14:41:03.222Z,8.20
2019-05-30T14:43:29.314Z,7.80
2019-05-30T14:45:55.442Z,8.40
2019-05-30T14:48:21.635Z,8.63
2019-05-30T14:50:47.828Z,8.40
2019-05-30T14:53:14.089Z,9.53
2019-05-30T14:55:41.353Z,8.60
2019-05-30T14:58:07.466Z,8.97
2019-05-30T15:00:33.681Z,8.70
2019-05-30T15:02:59.889Z,8.17
2019-05-30T15:05:26.115Z,8.20
2019-05-30T15:07:52.321Z,7.97
2019-05-30T15:10:18.784Z,7.13
2019-05-30T15:12:44.977Z,7.80
2019-05-30T15:15:16.727Z,7.47
2019-05-30T15:17:41.844Z,7.30
2019-05-30T15:20:10.303Z,7.63
2019-05-30T15:22:36.933Z,7.60
2019-05-30T15:25:05.751Z,7.50
2019-05-30T15:27:32.088Z,7.83
2019-05-30T15:29:59.350Z,7.40
2019-05-30T15:32:25.441Z,7.40
2019-05-30T15:34:51.631Z,7.13
2019-05-30T15:37:17.792Z,8.63
2019-05-30T15:39:45.046Z,8.60
2019-05-30T15:42:12.200Z,7.97
2019-05-30T15:44:39.395Z,9.10
2019-05-30T15:47:05.575Z,8.20
2019-05-30T15:49:31.889Z,8.10
2019-05-30T15:51:58.140Z,8.23
2019-05-30T15:54:25.043Z,8.30
2019-05-30T15:56:51.367Z,8.20
2019-05-30T15:59:17.765Z,8.20
2019-05-30T16:01:44.096Z,8.20
2019-05-30T16:04:10.215Z,8.23
2019-05-30T16:06:36.319Z,8.37
2019-05-30T16:09:05.365Z,7.93
2019-05-30T16:11:31.650Z,8.27
2019-05-30T16:13:57.954Z,7.80
2019-05-30T16:16:39.025Z,7.70
2019-05-30T16:18:52.062Z,7.97
2019-05-30T16:21:20.288Z,8.07
2019-05-30T16:23:46.569Z,8.97
2019-05-30T16:26:13.500Z,8.37
2019-05-30T16:28:39.743Z,9.00
2019-05-30T16:31:05.813Z,8.40
2019-05-30T16:33:32.210Z,8.10
2019-05-30T16:35:58.288Z,7.50
2019-05-30T16:38:24.478Z,7.65
2019-05-30T16:40:50.587Z,7.63
2019-05-30T16:43:16.896Z,7.65
2019-05-30T16:45:43.082Z,7.43
2019-05-30T16:48:09.169Z,8.40
2019-05-30T16:50:35.421Z,7.67
2019-05-30T16:53:01.552Z,8.30
2019-05-30T16:55:27.748Z,7.63
2019-05-30T16:57:54.043Z,8.43
2019-05-30T17:00:21.769Z,8.00
2019-05-30T17:02:48.217Z,7.67
2019-05-30T17:05:15.759Z,7.93
2019-05-30T17:07:42.133Z,7.73
2019-05-30T17:10:22.401Z,7.60
2019-05-30T17:12:36.662Z,7.40
2019-05-30T17:15:07.903Z,7.30
2019-05-30T17:17:34.098Z,8.20
2019-05-30T17:20:00.420Z,7.70
2019-05-30T17:22:29.391Z,7.50
2019-05-30T17:24:54.782Z,7.93
2019-05-30T17:27:20.898Z,7.57
2019-05-30T17:29:47.111Z,7.83
2019-05-30T17:32:13.202Z,7.67
2019-05-30T17:34:39.336Z,7.80
2019-05-30T17:37:05.664Z,7.53
2019-05-30T17:39:31.933Z,7.92
2019-05-30T17:41:58.067Z,8.33
2019-05-30T17:44:25.180Z,8.10
2019-05-30T17:46:51.292Z,7.93
2019-05-30T17:49:17.534Z,8.20
2019-05-30T17:51:43.643Z,8.20
2019-05-30T17:54:09.871Z,8.55
2019-05-30T17:56:35.939Z,8.83
2019-05-30T17:59:02.281Z,8.50
2019-05-30T18:01:28.502Z,9.38
2019-05-30T18:03:54.639Z,9.93
2019-05-30T18:06:20.831Z,9.88
2019-05-30T18:08:47.112Z,10.03
2019-05-30T18:11:13.474Z,10.50
2019-05-30T18:13:39.694Z,11.05
2019-05-30T18:16:05.805Z,11.10
2019-05-30T18:18:31.999Z,10.95
2019-05-30T18:20:58.649Z,10.80
2019-05-30T18:23:25.529Z,10.65
2019-05-30T18:25:51.811Z,11.40
2019-05-30T18:28:18.116Z,11.30
2019-05-30T18:30:44.433Z,11.50
2019-05-30T18:33:10.816Z,11.20
2019-05-30T18:35:37.111Z,10.70
2019-05-30T18:38:03.717Z,11.10
2019-05-30T18:40:33.163Z,11.00
2019-05-30T18:43:00.604Z,11.03
2019-05-30T18:45:35.811Z,10.93
2019-05-30T18:48:02.088Z,10.33
2019-05-30T18:50:29.295Z,10.80
2019-05-30T18:52:55.524Z,10.83
2019-05-30T18:55:21.725Z,10.77
2019-05-30T18:57:47.951Z,10.37
2019-05-30T19:00:16.540Z,9.93
2019-05-30T19:02:43.030Z,10.30
2019-05-30T19:05:09.425Z,9.78
2019-05-30T19:07:37.198Z,10.30
2019-05-30T19:10:04.261Z,9.98
2019-05-30T19:12:30.587Z,11.28
2019-05-30T19:14:56.890Z,11.33
2019-05-30T19:17:23.225Z,11.37
2019-05-30T19:19:51.315Z,11.40
2019-05-30T19:22:17.708Z,11.27
2019-05-30T19:24:43.983Z,11.07
2019-05-30T19:27:11.469Z,11.40
2019-05-30T19:29:37.692Z,10.33
2019-05-30T19:32:04.131Z,10.90
2019-05-30T19:34:30.772Z,11.37
2019-05-30T19:36:57.008Z,11.57
2019-05-30T19:39:23.206Z,10.77
2019-05-30T19:41:56.665Z,10.53
2019-05-30T19:44:17.366Z,11.03
2019-05-30T19:46:43.445Z,12.10
2019-05-30T19:49:09.662Z,11.20
2019-05-30T19:51:36.896Z,12.17
2019-05-30T19:54:03.589Z,11.50
2019-05-30T19:56:29.810Z,11.70
2019-05-30T19:58:55.958Z,10.63
2019-05-30T20:01:22.290Z,11.83
2019-05-30T20:03:48.535Z,11.70
2019-05-30T20:06:14.735Z,11.73
2019-05-30T20:08:52.898Z,12.57
2019-05-30T20:11:09.173Z,11.87
2019-05-30T20:13:35.277Z,12.47
2019-05-30T20:16:01.398Z,12.13
2019-05-30T20:18:27.594Z,13.03
2019-05-30T20:20:57.889Z,13.63
2019-05-30T20:23:22.071Z,13.57
2019-05-30T20:25:48.279Z,13.03
2019-05-30T20:28:14.394Z,13.20
2019-05-30T20:30:41.202Z,12.90
2019-05-30T20:33:07.418Z,12.17
2019-05-30T20:35:36.068Z,13.63
2019-05-30T20:38:01.899Z,12.87
2019-05-30T20:40:28.200Z,13.53
2019-05-30T20:42:54.466Z,12.57
2019-05-30T20:45:20.977Z,12.87
2019-05-30T20:47:47.504Z,12.87
2019-05-30T20:50:15.190Z,12.87
2019-05-30T20:52:44.066Z,13.33
2019-05-30T20:55:10.475Z,12.93
2019-05-30T20:57:36.544Z,13.17
2019-05-30T21:00:08.503Z,12.67
2019-05-30T21:02:34.807Z,13.20
2019-05-30T21:05:00.981Z,13.40
2019-05-30T21:07:27.060Z,13.27
2019-05-30T21:09:54.741Z,13.70
2019-05-30T21:12:36.445Z,13.00
2019-05-30T21:14:51.289Z,13.90
2019-05-30T21:17:19.592Z,13.13
2019-05-30T21:19:46.074Z,13.50
2019-05-30T21:22:12.254Z,13.50
2019-05-30T21:24:38.598Z,13.30
2019-05-30T21:27:04.917Z,13.97
2019-05-30T21:29:31.080Z,13.27
2019-05-30T21:31:57.178Z,13.13
2019-05-30T21:34:23.368Z,12.50
2019-05-30T21:36:49.662Z,13.23
2019-05-30T21:39:15.837Z,12.53
2019-05-30T21:41:42.260Z,13.17
2019-05-30T21:44:08.483Z,12.00
2019-05-30T21:46:34.553Z,12.73
2019-05-30T21:49:01.848Z,11.60
2019-05-30T21:51:28.052Z,12.33
2019-05-30T21:53:54.361Z,12.03
2019-05-30T21:56:20.679Z,11.83
2019-05-30T21:58:46.781Z,12.03
2019-05-30T22:01:20.778Z,12.30
2019-05-30T22:03:48.757Z,11.83
2019-05-30T22:06:14.839Z,11.83
2019-05-30T22:08:41.254Z,13.20
2019-05-30T22:11:07.539Z,12.37
2019-05-30T22:13:33.845Z,12.50
2019-05-30T22:16:00.070Z,11.87
2019-05-30T22:18:26.171Z,11.83
2019-05-30T22:20:52.382Z,12.07
2019-05-30T22:23:19.790Z,12.13
2019-05-30T22:25:46.347Z,11.67
2019-05-30T22:28:12.598Z,11.70
2019-05-30T22:30:38.886Z,12.00
2019-05-30T22:33:05.084Z,11.80
2019-05-30T22:35:31.294Z,12.00
2019-05-30T22:37:57.476Z,10.67
2019-05-30T22:40:23.672Z,11.00
2019-05-30T22:42:50.211Z,10.43
2019-05-30T22:45:16.486Z,10.43
2019-05-30T22:47:44.121Z,10.20
2019-05-30T22:50:10.502Z,10.73
2019-05-30T22:52:36.571Z,10.93
2019-05-30T22:55:04.256Z,10.57
2019-05-30T22:57:30.337Z,10.47
2019-05-30T22:59:57.139Z,10.50
2019-05-30T23:02:23.416Z,10.33
2019-05-30T23:04:50.099Z,10.10
2019-05-30T23:07:16.303Z,10.43
2019-05-30T23:09:42.419Z,9.97
2019-05-30T23:12:08.605Z,11.40
2019-05-30T23:14:34.845Z,11.27
2019-05-30T23:17:00.935Z,11.03
2019-05-30T23:19:27.088Z,10.60
2019-05-30T23:21:53.446Z,10.40
2019-05-30T23:24:20.618Z,10.87
2019-05-30T23:26:47.387Z,10.43
2019-05-30T23:29:13.602Z,10.07
2019-05-30T23:31:39.704Z,9.67
2019-05-30T23:34:05.894Z,9.60
2019-05-30T23:36:32.123Z,9.80
2019-05-30T23:38:58.946Z,9.33
2019-05-30T23:41:26.249Z,9.57
2019-05-30T23:43:57.941Z,9.28
2019-05-30T23:46:20.489Z,9.67
2019-05-30T23:48:46.589Z,8.60
2019-05-30T23:51:12.714Z,8.95
2019-05-30T23:53:38.828Z,8.47
2019-05-30T23:56:05.135Z,8.40
2019-05-30T23:58:31.241Z,8.83
